createdAt,value
2023-01-15T00:00:02.555Z,1.70
2023-01-15T00:00:15.125Z,1.90
2023-01-15T00:00:26.900Z,1.70
2023-01-15T00:00:37.680Z,1.90
2023-01-15T00:00:48.457Z,2.70
2023-01-15T00:01:00.269Z,2.80
2023-01-15T00:01:12.014Z,2.70
2023-01-15T00:01:23.764Z,5.20
2023-01-15T00:01:36.105Z,8.30
2023-01-15T00:01:47.810Z,13.00
2023-01-15T00:01:59.506Z,10.90
2023-01-15T00:02:11.772Z,6.60
2023-01-15T00:02:22.624Z,3.20
2023-01-15T00:02:34.374Z,3.10
2023-01-15T00:02:45.229Z,2.90
2023-01-15T00:02:57.501Z,2.60
2023-01-15T00:03:10.233Z,2.90
2023-01-15T00:03:21.011Z,2.80
2023-01-15T00:03:31.803Z,2.20
2023-01-15T00:03:42.620Z,2.60
2023-01-15T00:03:54.358Z,3.10
2023-01-15T00:04:05.098Z,4.20
2023-01-15T00:04:15.886Z,4.50
2023-01-15T00:04:26.655Z,4.00
2023-01-15T00:04:38.373Z,3.10
2023-01-15T00:04:49.157Z,2.60
2023-01-15T00:05:01.422Z,2.00
2023-01-15T00:05:13.160Z,1.90
2023-01-15T00:05:24.897Z,1.80
2023-01-15T00:05:35.627Z,1.80
2023-01-15T00:05:47.326Z,1.70
2023-01-15T00:05:58.082Z,1.80
2023-01-15T00:06:10.524Z,1.80
2023-01-15T00:06:21.253Z,1.60
2023-01-15T00:06:32.984Z,1.50
2023-01-15T00:06:43.744Z,1.60
2023-01-15T00:06:54.489Z,1.70
2023-01-15T00:07:06.925Z,1.80
2023-01-15T00:07:17.746Z,2.10
2023-01-15T00:07:28.554Z,2.60
2023-01-15T00:07:39.275Z,2.70
2023-01-15T00:07:50.065Z,2.50
2023-01-15T00:08:01.787Z,2.30
2023-01-15T00:08:13.507Z,2.20
2023-01-15T00:08:26.725Z,1.90
2023-01-15T00:08:39.191Z,1.80
2023-01-15T00:08:50.166Z,1.80
2023-01-15T00:09:00.965Z,1.80
2023-01-15T00:09:11.714Z,1.70
2023-01-15T00:09:22.480Z,2.30
2023-01-15T00:09:33.253Z,7.00
2023-01-15T00:09:43.980Z,10.70
2023-01-15T00:09:55.676Z,13.70
2023-01-15T00:10:06.486Z,13.10
2023-01-15T00:10:18.206Z,12.40
2023-01-15T00:10:29.900Z,10.10
2023-01-15T00:10:40.626Z,7.20
2023-01-15T00:10:52.926Z,5.80
2023-01-15T00:11:05.413Z,3.00
2023-01-15T00:11:16.137Z,2.40
2023-01-15T00:11:26.885Z,2.50
2023-01-15T00:11:39.351Z,6.10
2023-01-15T00:11:50.145Z,8.20
2023-01-15T00:12:01.847Z,12.40
2023-01-15T00:12:13.559Z,11.40
2023-01-15T00:12:24.295Z,10.20
2023-01-15T00:12:37.007Z,7.60
2023-01-15T00:12:49.966Z,4.10
2023-01-15T00:13:02.928Z,2.40
2023-01-15T00:13:15.176Z,1.90
2023-01-15T00:13:27.392Z,2.00
2023-01-15T00:13:38.152Z,2.10
2023-01-15T00:13:50.656Z,2.00
2023-01-15T00:14:01.396Z,2.10
2023-01-15T00:14:12.136Z,2.10
2023-01-15T00:14:24.342Z,2.90
2023-01-15T00:14:36.348Z,3.00
2023-01-15T00:14:47.118Z,3.50
2023-01-15T00:14:57.869Z,3.10
2023-01-15T00:15:08.605Z,3.00
2023-01-15T00:15:19.419Z,2.50
2023-01-15T00:15:32.369Z,1.90
2023-01-15T00:15:44.921Z,1.80
2023-01-15T00:15:56.922Z,1.60
2023-01-15T00:16:08.721Z,1.80
2023-01-15T00:16:19.560Z,1.90
2023-01-15T00:16:31.258Z,1.80
2023-01-15T00:16:42.998Z,1.80
2023-01-15T00:16:53.752Z,2.90
2023-01-15T00:17:05.486Z,9.50
2023-01-15T00:17:16.225Z,12.00
2023-01-15T00:17:29.481Z,12.80
2023-01-15T00:17:40.231Z,9.20
2023-01-15T00:17:52.720Z,8.10
2023-01-15T00:18:05.168Z,4.60
2023-01-15T00:18:16.900Z,3.40
2023-01-15T00:18:27.750Z,3.10
2023-01-15T00:18:38.491Z,2.40
2023-01-15T00:18:50.933Z,2.30
2023-01-15T00:19:01.687Z,1.90
2023-01-15T00:19:12.469Z,1.80
2023-01-15T00:19:24.431Z,1.90
2023-01-15T00:19:35.221Z,1.80
2023-01-15T00:19:45.968Z,2.00
2023-01-15T00:19:56.760Z,2.20
2023-01-15T00:20:07.542Z,2.80
2023-01-15T00:20:19.232Z,3.10
2023-01-15T00:20:30.031Z,3.00
2023-01-15T00:20:40.799Z,2.60
2023-01-15T00:20:51.560Z,6.00
2023-01-15T00:21:03.278Z,8.10
2023-01-15T00:21:14.093Z,9.30
2023-01-15T00:21:25.913Z,8.80
2023-01-15T00:21:36.711Z,12.10
2023-01-15T00:21:47.455Z,12.50
2023-01-15T00:22:00.408Z,12.30
2023-01-15T00:22:11.173Z,8.10
2023-01-15T00:22:22.894Z,6.90
2023-01-15T00:22:33.657Z,8.20
2023-01-15T00:22:45.849Z,8.70
2023-01-15T00:22:58.077Z,6.60
2023-01-15T00:23:09.851Z,4.10
2023-01-15T00:23:21.544Z,3.00
2023-01-15T00:23:33.281Z,2.70
2023-01-15T00:23:44.051Z,2.60
2023-01-15T00:23:54.814Z,2.50
2023-01-15T00:24:05.572Z,2.60
2023-01-15T00:24:16.383Z,2.70
2023-01-15T00:24:27.122Z,2.20
2023-01-15T00:24:37.884Z,2.00
2023-01-15T00:24:48.689Z,2.30
2023-01-15T00:24:59.464Z,2.90
2023-01-15T00:25:11.906Z,3.10
2023-01-15T00:25:24.886Z,2.30
2023-01-15T00:25:35.656Z,2.30
2023-01-15T00:25:47.362Z,2.20
2023-01-15T00:26:00.579Z,2.50
2023-01-15T00:26:11.461Z,7.80
2023-01-15T00:26:23.261Z,11.10
2023-01-15T00:26:34.953Z,11.00
2023-01-15T00:26:45.749Z,7.30
2023-01-15T00:26:56.461Z,5.40
2023-01-15T00:27:08.201Z,4.00
2023-01-15T00:27:19.901Z,3.70
2023-01-15T00:27:30.663Z,3.70
2023-01-15T00:27:41.408Z,3.30
2023-01-15T00:27:52.204Z,3.10
2023-01-15T00:28:05.420Z,2.50
2023-01-15T00:28:17.128Z,2.30
2023-01-15T00:28:27.893Z,6.00
2023-01-15T00:28:38.626Z,6.50
2023-01-15T00:28:50.323Z,7.00
2023-01-15T00:29:01.065Z,5.40
2023-01-15T00:29:11.822Z,6.70
2023-01-15T00:29:22.571Z,8.50
2023-01-15T00:29:33.321Z,7.60
2023-01-15T00:29:45.060Z,5.50
2023-01-15T00:29:57.299Z,3.00
2023-01-15T00:30:08.090Z,2.20
2023-01-15T00:30:20.561Z,2.10
2023-01-15T00:30:31.312Z,2.10
2023-01-15T00:30:42.056Z,2.00
2023-01-15T00:30:52.841Z,1.90
2023-01-15T00:31:04.553Z,2.20
2023-01-15T00:31:17.795Z,2.20
2023-01-15T00:31:29.525Z,2.10
2023-01-15T00:31:41.272Z,2.10
2023-01-15T00:31:52.038Z,2.30
2023-01-15T00:32:04.336Z,2.40
2023-01-15T00:32:16.053Z,2.20
2023-01-15T00:32:29.214Z,2.00
2023-01-15T00:32:40.003Z,2.10
2023-01-15T00:32:53.205Z,2.10
2023-01-15T00:33:03.977Z,1.80
2023-01-15T00:33:14.729Z,1.80
2023-01-15T00:33:26.462Z,3.00
2023-01-15T00:33:38.141Z,3.50
2023-01-15T00:33:50.617Z,4.20
2023-01-15T00:34:03.062Z,3.40
2023-01-15T00:34:15.276Z,3.40
2023-01-15T00:34:26.084Z,2.90
2023-01-15T00:34:36.815Z,2.80
2023-01-15T00:34:47.573Z,2.50
2023-01-15T00:34:59.335Z,2.20
2023-01-15T00:35:11.104Z,1.90
2023-01-15T00:35:23.333Z,1.80
2023-01-15T00:35:34.102Z,1.60
2023-01-15T00:35:46.342Z,1.60
2023-01-15T00:35:58.045Z,1.50
2023-01-15T00:36:10.526Z,1.40
2023-01-15T00:36:22.763Z,1.50
2023-01-15T00:36:35.185Z,1.50
2023-01-15T00:36:45.976Z,1.60
2023-01-15T00:36:58.421Z,1.60
2023-01-15T00:37:09.199Z,1.60
2023-01-15T00:37:19.998Z,1.50
2023-01-15T00:37:33.224Z,1.30
2023-01-15T00:37:44.952Z,1.40
2023-01-15T00:37:55.714Z,1.30
2023-01-15T00:38:08.667Z,1.40
2023-01-15T00:38:20.388Z,1.50
2023-01-15T00:38:31.174Z,1.80
2023-01-15T00:38:42.902Z,1.70
2023-01-15T00:38:53.664Z,1.70
2023-01-15T00:39:04.483Z,1.70
2023-01-15T00:39:15.271Z,1.60
2023-01-15T00:39:26.974Z,1.60
2023-01-15T00:39:39.455Z,1.50
2023-01-15T00:39:50.247Z,1.50
2023-01-15T00:40:02.455Z,1.60
2023-01-15T00:40:13.253Z,1.60
2023-01-15T00:40:25.056Z,1.70
2023-01-15T00:40:35.977Z,1.70
2023-01-15T00:40:47.746Z,1.60
2023-01-15T00:40:58.486Z,1.70
2023-01-15T00:41:09.224Z,1.60
2023-01-15T00:41:20.983Z,1.60
2023-01-15T00:41:32.662Z,1.50
2023-01-15T00:41:43.417Z,1.80
2023-01-15T00:41:54.161Z,1.80
2023-01-15T00:42:04.899Z,1.90
2023-01-15T00:42:15.674Z,1.70
2023-01-15T00:42:26.479Z,1.60
2023-01-15T00:42:40.128Z,1.60
2023-01-15T00:42:54.339Z,1.70
2023-01-15T00:43:07.261Z,1.70
2023-01-15T00:43:18.983Z,1.20
2023-01-15T00:43:29.768Z,1.00
2023-01-15T00:43:42.225Z,1.10
2023-01-15T00:43:53.978Z,1.20
2023-01-15T00:44:04.846Z,1.20
2023-01-15T00:44:15.624Z,1.10
2023-01-15T00:44:27.350Z,1.10
2023-01-15T00:44:38.134Z,1.20
2023-01-15T00:44:48.911Z,1.20
2023-01-15T00:45:00.664Z,1.30
2023-01-15T00:45:11.587Z,1.00
2023-01-15T00:45:22.491Z,0.90
2023-01-15T00:45:34.573Z,1.00
2023-01-15T00:45:45.355Z,0.90
2023-01-15T00:45:57.809Z,0.90
2023-01-15T00:46:08.636Z,0.90
2023-01-15T00:46:21.118Z,1.00
2023-01-15T00:46:32.872Z,1.00
2023-01-15T00:46:45.331Z,1.10
2023-01-15T00:46:56.091Z,1.10
2023-01-15T00:47:06.884Z,1.20
2023-01-15T00:47:18.610Z,1.00
2023-01-15T00:47:29.388Z,0.90
2023-01-15T00:47:40.145Z,0.90
2023-01-15T00:47:50.996Z,0.90
2023-01-15T00:48:03.410Z,0.90
2023-01-15T00:48:14.187Z,0.80
2023-01-15T00:48:24.971Z,0.90
2023-01-15T00:48:36.701Z,1.00
2023-01-15T00:48:50.126Z,1.10
2023-01-15T00:49:00.908Z,1.10
2023-01-15T00:49:11.674Z,1.00
2023-01-15T00:49:22.396Z,1.20
2023-01-15T00:49:34.868Z,1.10
2023-01-15T00:49:46.583Z,1.10
2023-01-15T00:49:58.808Z,1.10
2023-01-15T00:50:11.103Z,1.20
2023-01-15T00:50:23.549Z,1.10
2023-01-15T00:50:34.338Z,1.40
2023-01-15T00:50:46.043Z,1.40
2023-01-15T00:50:59.259Z,1.20
2023-01-15T00:51:11.078Z,1.10
2023-01-15T00:51:22.807Z,1.10
2023-01-15T00:51:33.541Z,1.10
2023-01-15T00:51:45.252Z,1.10
2023-01-15T00:51:57.676Z,1.10
2023-01-15T00:52:08.419Z,1.10
2023-01-15T00:52:21.526Z,1.00
2023-01-15T00:52:32.314Z,1.00
2023-01-15T00:52:43.052Z,0.90
2023-01-15T00:52:54.841Z,0.80
2023-01-15T00:53:07.320Z,0.80
2023-01-15T00:53:20.554Z,1.00
2023-01-15T00:53:31.308Z,1.00
2023-01-15T00:53:44.047Z,1.00
2023-01-15T00:53:54.836Z,0.90
2023-01-15T00:54:05.569Z,1.00
2023-01-15T00:54:16.300Z,0.90
2023-01-15T00:54:27.088Z,0.90
2023-01-15T00:54:38.757Z,0.80
2023-01-15T00:54:50.578Z,0.80
2023-01-15T00:55:03.541Z,0.90
2023-01-15T00:55:15.267Z,0.70
2023-01-15T00:55:26.024Z,0.80
2023-01-15T00:55:37.738Z,0.90
2023-01-15T00:55:48.489Z,1.10
2023-01-15T00:55:59.251Z,1.10
2023-01-15T00:56:10.019Z,0.90
2023-01-15T00:56:20.758Z,0.80
2023-01-15T00:56:31.500Z,0.90
2023-01-15T00:56:42.265Z,0.80
2023-01-15T00:56:54.563Z,0.90
2023-01-15T00:57:07.206Z,0.90
2023-01-15T00:57:17.920Z,0.90
2023-01-15T00:57:28.672Z,0.90
2023-01-15T00:57:39.430Z,0.90
2023-01-15T00:57:52.639Z,1.10
2023-01-15T00:58:04.874Z,1.30
2023-01-15T00:58:16.640Z,1.20
2023-01-15T00:58:27.439Z,0.90
2023-01-15T00:58:39.192Z,0.90
2023-01-15T00:58:50.969Z,0.90
2023-01-15T00:59:01.723Z,0.90
2023-01-15T00:59:12.479Z,0.80
2023-01-15T00:59:23.213Z,0.80
2023-01-15T00:59:35.453Z,0.90
2023-01-15T00:59:47.929Z,1.00
2023-01-15T00:59:58.708Z,1.00
2023-01-15T01:00:09.603Z,0.90
2023-01-15T01:00:20.442Z,0.80
2023-01-15T01:00:31.307Z,0.70
2023-01-15T01:00:43.068Z,0.80
2023-01-15T01:00:55.540Z,0.80
2023-01-15T01:01:06.432Z,0.80
2023-01-15T01:01:17.362Z,1.10
2023-01-15T01:01:29.243Z,1.10
2023-01-15T01:01:41.770Z,1.20
2023-01-15T01:01:53.741Z,1.00
2023-01-15T01:02:06.157Z,1.00
2023-01-15T01:02:18.517Z,0.90
2023-01-15T01:02:29.373Z,1.20
2023-01-15T01:02:41.183Z,1.10
2023-01-15T01:02:52.057Z,1.00
2023-01-15T01:03:06.101Z,1.20
2023-01-15T01:03:17.834Z,1.50
2023-01-15T01:03:29.584Z,1.50
2023-01-15T01:03:41.377Z,1.30
2023-01-15T01:03:52.160Z,1.10
2023-01-15T01:04:06.444Z,1.10
2023-01-15T01:04:18.195Z,1.10
2023-01-15T01:04:30.710Z,1.20
2023-01-15T01:04:42.465Z,1.30
2023-01-15T01:04:54.960Z,1.00
2023-01-15T01:05:05.701Z,1.20
2023-01-15T01:05:17.565Z,1.40
2023-01-15T01:05:28.342Z,1.40
2023-01-15T01:05:40.851Z,1.40
2023-01-15T01:05:51.651Z,1.50
2023-01-15T01:06:03.345Z,1.60
2023-01-15T01:06:14.157Z,1.70
2023-01-15T01:06:26.633Z,1.80
2023-01-15T01:06:38.838Z,1.80
2023-01-15T01:06:49.685Z,1.80
2023-01-15T01:07:01.429Z,1.80
2023-01-15T01:07:13.682Z,1.60
2023-01-15T01:07:24.431Z,1.40
2023-01-15T01:07:36.152Z,1.50
2023-01-15T01:07:46.932Z,1.60
2023-01-15T01:07:58.763Z,1.60
2023-01-15T01:08:12.312Z,1.30
2023-01-15T01:08:23.054Z,1.50
2023-01-15T01:08:35.793Z,1.50
2023-01-15T01:08:48.244Z,1.50
2023-01-15T01:09:00.050Z,1.20
2023-01-15T01:09:12.538Z,1.10
2023-01-15T01:09:23.292Z,1.10
2023-01-15T01:09:36.005Z,1.10
2023-01-15T01:09:48.473Z,1.10
2023-01-15T01:09:59.204Z,1.20
2023-01-15T01:10:09.988Z,1.40
2023-01-15T01:10:23.219Z,1.30
2023-01-15T01:10:34.986Z,1.30
2023-01-15T01:10:47.444Z,1.20
2023-01-15T01:10:58.222Z,1.20
2023-01-15T01:11:08.956Z,1.10
2023-01-15T01:11:21.432Z,1.40
2023-01-15T01:11:33.845Z,1.30
2023-01-15T01:11:44.625Z,1.40
2023-01-15T01:11:55.352Z,1.20
2023-01-15T01:12:07.085Z,1.20
2023-01-15T01:12:18.839Z,1.20
2023-01-15T01:12:30.633Z,1.50
2023-01-15T01:12:43.107Z,1.50
2023-01-15T01:12:54.807Z,1.30
2023-01-15T01:13:05.575Z,1.20
2023-01-15T01:13:17.336Z,1.20
2023-01-15T01:13:28.091Z,1.70
2023-01-15T01:13:38.841Z,1.40
2023-01-15T01:13:50.643Z,1.60
2023-01-15T01:14:02.684Z,1.10
2023-01-15T01:14:13.588Z,1.20
2023-01-15T01:14:27.305Z,0.90
2023-01-15T01:14:39.069Z,1.00
2023-01-15T01:14:50.796Z,1.10
2023-01-15T01:15:01.574Z,1.00
2023-01-15T01:15:13.331Z,1.10
2023-01-15T01:15:24.123Z,1.00
2023-01-15T01:15:36.603Z,1.00
2023-01-15T01:15:48.315Z,0.90
2023-01-15T01:15:59.151Z,1.00
2023-01-15T01:16:09.985Z,1.10
2023-01-15T01:16:20.836Z,1.20
2023-01-15T01:16:31.689Z,0.90
2023-01-15T01:16:42.485Z,0.90
2023-01-15T01:16:53.297Z,0.90
2023-01-15T01:17:05.023Z,1.00
2023-01-15T01:17:15.774Z,0.90
2023-01-15T01:17:26.516Z,0.90
2023-01-15T01:17:39.736Z,1.00
2023-01-15T01:17:50.564Z,1.00
2023-01-15T01:18:01.305Z,0.60
2023-01-15T01:18:12.076Z,0.70
2023-01-15T01:18:23.832Z,0.70
2023-01-15T01:18:35.565Z,0.80
2023-01-15T01:18:47.997Z,0.80
2023-01-15T01:18:58.769Z,0.80
2023-01-15T01:19:09.538Z,0.70
2023-01-15T01:19:20.367Z,0.70
2023-01-15T01:19:31.136Z,0.60
2023-01-15T01:19:43.353Z,0.60
2023-01-15T01:19:55.830Z,0.60
2023-01-15T01:20:06.593Z,0.70
2023-01-15T01:20:17.345Z,0.80
2023-01-15T01:20:28.142Z,0.80
2023-01-15T01:20:38.877Z,0.70
2023-01-15T01:20:51.354Z,1.00
2023-01-15T01:21:03.836Z,0.90
2023-01-15T01:21:14.595Z,0.80
2023-01-15T01:21:25.359Z,0.90
2023-01-15T01:21:36.095Z,1.10
2023-01-15T01:21:47.823Z,0.90
2023-01-15T01:21:58.558Z,0.90
2023-01-15T01:22:11.778Z,0.70
2023-01-15T01:22:22.584Z,0.60
2023-01-15T01:22:33.363Z,0.70
2023-01-15T01:22:44.130Z,0.70
2023-01-15T01:22:56.595Z,0.80
2023-01-15T01:23:09.075Z,0.80
2023-01-15T01:23:20.811Z,0.80
2023-01-15T01:23:33.269Z,1.00
2023-01-15T01:23:44.067Z,1.00
2023-01-15T01:23:54.801Z,0.80
2023-01-15T01:24:05.545Z,1.10
2023-01-15T01:24:17.252Z,1.10
2023-01-15T01:24:28.005Z,1.10
2023-01-15T01:24:38.800Z,0.70
2023-01-15T01:24:51.289Z,0.70
2023-01-15T01:25:03.524Z,0.70
2023-01-15T01:25:15.988Z,0.80
2023-01-15T01:25:29.239Z,0.90
2023-01-15T01:25:41.718Z,0.80
2023-01-15T01:25:52.499Z,0.80
2023-01-15T01:26:03.338Z,1.10
2023-01-15T01:26:15.132Z,1.00
2023-01-15T01:26:26.872Z,1.00
2023-01-15T01:26:37.612Z,0.80
2023-01-15T01:26:49.380Z,0.80
2023-01-15T01:27:02.088Z,0.80
2023-01-15T01:27:15.029Z,0.60
2023-01-15T01:27:25.818Z,0.60
2023-01-15T01:27:37.525Z,0.80
2023-01-15T01:27:48.273Z,1.00
2023-01-15T01:28:00.520Z,1.00
2023-01-15T01:28:12.229Z,0.80
2023-01-15T01:28:23.958Z,0.70
2023-01-15T01:28:37.176Z,1.10
2023-01-15T01:28:48.886Z,1.30
2023-01-15T01:29:00.590Z,1.30
2023-01-15T01:29:11.372Z,1.00
2023-01-15T01:29:23.145Z,0.70
2023-01-15T01:29:34.859Z,0.90
2023-01-15T01:29:45.603Z,1.00
2023-01-15T01:29:56.428Z,1.00
2023-01-15T01:30:07.188Z,1.00
2023-01-15T01:30:18.904Z,1.10
2023-01-15T01:30:30.635Z,1.00
2023-01-15T01:30:43.063Z,0.80
2023-01-15T01:30:53.820Z,1.10
2023-01-15T01:31:06.819Z,1.20
2023-01-15T01:31:17.626Z,0.80
2023-01-15T01:31:28.354Z,0.90
2023-01-15T01:31:40.193Z,1.10
2023-01-15T01:31:50.951Z,1.10
2023-01-15T01:32:01.746Z,1.30
2023-01-15T01:32:14.979Z,1.00
2023-01-15T01:32:25.780Z,0.80
2023-01-15T01:32:36.522Z,0.60
2023-01-15T01:32:47.346Z,0.70
2023-01-15T01:32:59.151Z,0.70
2023-01-15T01:33:10.895Z,1.00
2023-01-15T01:33:24.129Z,1.00
2023-01-15T01:33:34.870Z,0.90
2023-01-15T01:33:45.623Z,0.90
2023-01-15T01:33:57.353Z,0.90
2023-01-15T01:34:09.093Z,0.80
2023-01-15T01:34:19.878Z,1.10
2023-01-15T01:34:30.637Z,1.10
2023-01-15T01:34:42.384Z,1.00
2023-01-15T01:34:53.110Z,0.80
2023-01-15T01:35:04.880Z,0.80
2023-01-15T01:35:15.620Z,1.00
2023-01-15T01:35:26.432Z,0.80
2023-01-15T01:35:37.224Z,0.70
2023-01-15T01:35:48.952Z,0.60
2023-01-15T01:35:59.709Z,0.80
2023-01-15T01:36:10.449Z,0.90
2023-01-15T01:36:22.672Z,1.00
2023-01-15T01:36:35.120Z,1.10
2023-01-15T01:36:46.977Z,1.10
2023-01-15T01:36:57.712Z,1.20
2023-01-15T01:37:08.494Z,1.20
2023-01-15T01:37:20.227Z,1.20
2023-01-15T01:37:32.440Z,1.00
2023-01-15T01:37:44.201Z,0.90
2023-01-15T01:37:54.973Z,0.70
2023-01-15T01:38:05.734Z,1.10
2023-01-15T01:38:17.471Z,1.50
2023-01-15T01:38:29.239Z,1.40
2023-01-15T01:38:40.042Z,1.50
2023-01-15T01:38:52.503Z,1.10
2023-01-15T01:39:03.272Z,1.30
2023-01-15T01:39:14.025Z,1.20
2023-01-15T01:39:24.799Z,0.90
2023-01-15T01:39:35.627Z,1.00
2023-01-15T01:39:46.411Z,0.90
2023-01-15T01:39:57.165Z,0.90
2023-01-15T01:40:08.003Z,0.80
2023-01-15T01:40:18.747Z,1.00
2023-01-15T01:40:29.497Z,0.90
2023-01-15T01:40:40.241Z,0.90
2023-01-15T01:40:51.037Z,0.90
2023-01-15T01:41:02.786Z,0.90
2023-01-15T01:41:14.506Z,0.80
2023-01-15T01:41:25.252Z,0.90
2023-01-15T01:41:36.054Z,0.90
2023-01-15T01:41:46.823Z,0.80
2023-01-15T01:41:59.285Z,0.90
2023-01-15T01:42:10.080Z,1.00
2023-01-15T01:42:20.891Z,1.50
2023-01-15T01:42:32.626Z,1.40
2023-01-15T01:42:43.414Z,1.30
2023-01-15T01:42:55.161Z,0.90
2023-01-15T01:43:06.911Z,1.00
2023-01-15T01:43:17.661Z,1.00
2023-01-15T01:43:28.398Z,1.00
2023-01-15T01:43:40.181Z,1.20
2023-01-15T01:43:50.933Z,1.10
2023-01-15T01:44:04.166Z,1.10
2023-01-15T01:44:17.891Z,0.80
2023-01-15T01:44:29.611Z,0.70
2023-01-15T01:44:42.073Z,0.60
2023-01-15T01:44:52.873Z,0.70
2023-01-15T01:45:04.870Z,0.70
2023-01-15T01:45:17.306Z,0.80
2023-01-15T01:45:28.185Z,0.80
2023-01-15T01:45:39.039Z,0.70
2023-01-15T01:45:51.263Z,0.60
2023-01-15T01:46:03.815Z,0.70
2023-01-15T01:46:16.313Z,0.70
2023-01-15T01:46:28.066Z,0.70
2023-01-15T01:46:40.554Z,0.70
2023-01-15T01:46:52.312Z,0.60
2023-01-15T01:47:04.018Z,0.70
2023-01-15T01:47:16.501Z,0.50
2023-01-15T01:47:29.236Z,0.60
2023-01-15T01:47:42.192Z,0.50
2023-01-15T01:47:55.948Z,0.50
2023-01-15T01:48:06.756Z,0.50
2023-01-15T01:48:18.506Z,0.80
2023-01-15T01:48:29.275Z,0.80
2023-01-15T01:48:40.024Z,0.80
2023-01-15T01:48:51.784Z,0.50
2023-01-15T01:49:04.015Z,0.50
2023-01-15T01:49:14.765Z,0.60
2023-01-15T01:49:25.574Z,0.70
2023-01-15T01:49:36.326Z,0.80
2023-01-15T01:49:47.124Z,0.70
2023-01-15T01:49:58.833Z,0.70
2023-01-15T01:50:09.605Z,0.80
2023-01-15T01:50:20.338Z,0.80
2023-01-15T01:50:32.073Z,0.80
2023-01-15T01:50:42.845Z,0.70
2023-01-15T01:50:55.343Z,0.70
2023-01-15T01:51:07.074Z,0.70
2023-01-15T01:51:17.831Z,1.00
2023-01-15T01:51:30.296Z,0.90
2023-01-15T01:51:41.060Z,0.90
2023-01-15T01:51:51.804Z,0.70
2023-01-15T01:52:03.502Z,0.70
2023-01-15T01:52:15.213Z,0.70
2023-01-15T01:52:27.640Z,0.60
2023-01-15T01:52:38.391Z,0.60
2023-01-15T01:52:49.207Z,0.60
2023-01-15T01:53:00.914Z,0.60
2023-01-15T01:53:14.168Z,0.50
2023-01-15T01:53:26.643Z,0.60
2023-01-15T01:53:38.362Z,0.70
2023-01-15T01:53:49.116Z,0.80
2023-01-15T01:54:01.564Z,0.80
2023-01-15T01:54:12.342Z,0.80
2023-01-15T01:54:23.074Z,1.00
2023-01-15T01:54:35.506Z,1.00
2023-01-15T01:54:46.338Z,0.90
2023-01-15T01:54:59.036Z,0.80
2023-01-15T01:55:09.770Z,0.80
2023-01-15T01:55:20.544Z,0.80
2023-01-15T01:55:31.313Z,0.80
2023-01-15T01:55:43.019Z,0.70
2023-01-15T01:55:53.779Z,0.80
2023-01-15T01:56:04.544Z,0.80
2023-01-15T01:56:16.255Z,0.80
2023-01-15T01:56:27.034Z,0.80
2023-01-15T01:56:37.809Z,0.80
2023-01-15T01:56:48.598Z,0.90
2023-01-15T01:57:00.560Z,0.90
2023-01-15T01:57:13.808Z,0.90
2023-01-15T01:57:24.789Z,0.70
2023-01-15T01:57:37.239Z,0.70
2023-01-15T01:57:48.006Z,0.80
2023-01-15T01:57:58.837Z,0.80
2023-01-15T01:58:09.635Z,0.70
2023-01-15T01:58:20.436Z,0.60
2023-01-15T01:58:31.287Z,0.60
2023-01-15T01:58:42.095Z,0.70
2023-01-15T01:58:52.835Z,0.70
2023-01-15T01:59:03.587Z,0.70
2023-01-15T01:59:14.355Z,0.60
2023-01-15T01:59:26.042Z,0.60
2023-01-15T01:59:36.841Z,0.60
2023-01-15T01:59:48.595Z,0.70
2023-01-15T02:00:00.356Z,0.70
2023-01-15T02:00:13.961Z,0.70
2023-01-15T02:00:26.455Z,0.70
2023-01-15T02:00:37.298Z,0.80
2023-01-15T02:00:48.162Z,0.80
2023-01-15T02:01:00.033Z,0.90
2023-01-15T02:01:10.969Z,0.80
2023-01-15T02:01:21.852Z,0.80
2023-01-15T02:01:35.114Z,0.80
2023-01-15T02:01:45.996Z,0.80
2023-01-15T02:01:57.890Z,0.90
2023-01-15T02:02:08.818Z,0.80
2023-01-15T02:02:21.388Z,0.70
2023-01-15T02:02:33.690Z,0.50
2023-01-15T02:02:44.516Z,0.60
2023-01-15T02:02:57.631Z,0.50
2023-01-15T02:03:08.412Z,0.60
2023-01-15T02:03:19.146Z,0.60
2023-01-15T02:03:30.931Z,0.50
2023-01-15T02:03:41.696Z,0.50
2023-01-15T02:03:52.446Z,0.50
2023-01-15T02:04:03.220Z,0.40
2023-01-15T02:04:14.871Z,0.40
2023-01-15T02:04:25.628Z,0.40
2023-01-15T02:04:37.382Z,0.40
2023-01-15T02:04:49.127Z,0.40
2023-01-15T02:05:00.818Z,0.40
2023-01-15T02:05:11.621Z,0.50
2023-01-15T02:05:22.378Z,0.60
2023-01-15T02:05:33.137Z,0.80
2023-01-15T02:05:45.347Z,0.80
2023-01-15T02:05:57.576Z,0.90
2023-01-15T02:06:09.298Z,0.90
2023-01-15T02:06:21.747Z,0.90
2023-01-15T02:06:32.525Z,0.90
2023-01-15T02:06:43.318Z,0.90
2023-01-15T02:06:54.062Z,0.90
2023-01-15T02:07:06.487Z,0.80
2023-01-15T02:07:17.239Z,0.80
2023-01-15T02:07:30.257Z,0.80
2023-01-15T02:07:41.995Z,0.80
2023-01-15T02:07:52.830Z,0.80
2023-01-15T02:08:04.537Z,0.90
2023-01-15T02:08:16.954Z,0.90
2023-01-15T02:08:28.716Z,0.90
2023-01-15T02:08:40.989Z,0.80
2023-01-15T02:08:53.436Z,0.70
2023-01-15T02:09:05.176Z,0.70
2023-01-15T02:09:15.947Z,0.70
2023-01-15T02:09:27.935Z,0.90
2023-01-15T02:09:38.681Z,0.80
2023-01-15T02:09:49.450Z,0.80
2023-01-15T02:10:01.174Z,0.80
2023-01-15T02:10:13.689Z,0.70
2023-01-15T02:10:24.531Z,0.80
2023-01-15T02:10:35.342Z,1.00
2023-01-15T02:10:47.076Z,1.00
2023-01-15T02:10:57.858Z,1.00
2023-01-15T02:11:08.602Z,0.90
2023-01-15T02:11:21.049Z,0.70
2023-01-15T02:11:31.795Z,0.70
2023-01-15T02:11:42.529Z,0.60
2023-01-15T02:11:54.258Z,0.70
2023-01-15T02:12:05.042Z,0.70
2023-01-15T02:12:16.783Z,0.60
2023-01-15T02:12:29.028Z,0.60
2023-01-15T02:12:39.777Z,0.70
2023-01-15T02:12:51.517Z,0.70
2023-01-15T02:13:02.252Z,0.70
2023-01-15T02:13:13.007Z,0.70
2023-01-15T02:13:24.747Z,0.70
2023-01-15T02:13:36.541Z,0.70
2023-01-15T02:13:48.267Z,0.80
2023-01-15T02:14:00.745Z,0.70
2023-01-15T02:14:12.968Z,0.60
2023-01-15T02:14:23.769Z,0.70
2023-01-15T02:14:37.082Z,0.70
2023-01-15T02:14:47.980Z,0.80
2023-01-15T02:14:59.678Z,0.70
2023-01-15T02:15:10.420Z,0.60
2023-01-15T02:15:22.665Z,0.80
2023-01-15T02:15:34.438Z,0.90
2023-01-15T02:15:46.198Z,0.80
2023-01-15T02:15:58.968Z,0.70
2023-01-15T02:16:10.699Z,0.80
2023-01-15T02:16:21.567Z,0.70
2023-01-15T02:16:32.325Z,0.70
2023-01-15T02:16:44.615Z,0.70
2023-01-15T02:16:55.329Z,0.70
2023-01-15T02:17:06.083Z,0.70
2023-01-15T02:17:17.801Z,0.60
2023-01-15T02:17:28.511Z,0.70
2023-01-15T02:17:40.986Z,0.70
2023-01-15T02:17:52.740Z,0.70
2023-01-15T02:18:04.461Z,0.70
2023-01-15T02:18:15.250Z,0.80
2023-01-15T02:18:26.067Z,0.80
2023-01-15T02:18:37.784Z,0.70
2023-01-15T02:18:50.259Z,0.70
2023-01-15T02:19:01.989Z,0.70
2023-01-15T02:19:12.823Z,0.70
2023-01-15T02:19:23.581Z,0.70
2023-01-15T02:19:34.339Z,0.70
2023-01-15T02:19:46.880Z,0.70
2023-01-15T02:19:57.613Z,0.70
2023-01-15T02:20:08.381Z,0.70
2023-01-15T02:20:21.088Z,0.60
2023-01-15T02:20:32.827Z,0.60
2023-01-15T02:20:43.591Z,0.60
2023-01-15T02:20:55.334Z,0.60
2023-01-15T02:21:06.077Z,0.60
2023-01-15T02:21:17.808Z,0.60
2023-01-15T02:21:29.530Z,0.80
2023-01-15T02:21:40.263Z,0.80
2023-01-15T02:21:51.950Z,0.70
2023-01-15T02:22:03.653Z,0.70
2023-01-15T02:22:15.350Z,0.70
2023-01-15T02:22:26.130Z,0.80
2023-01-15T02:22:36.903Z,0.80
2023-01-15T02:22:48.868Z,0.70
2023-01-15T02:22:59.609Z,0.70
2023-01-15T02:23:14.225Z,0.70
2023-01-15T02:23:26.687Z,0.70
2023-01-15T02:23:38.382Z,1.30
2023-01-15T02:23:50.101Z,1.20
2023-01-15T02:24:03.398Z,0.90
2023-01-15T02:24:14.186Z,0.90
2023-01-15T02:24:24.931Z,0.90
2023-01-15T02:24:35.708Z,0.70
2023-01-15T02:24:46.529Z,0.70
2023-01-15T02:24:58.774Z,0.70
2023-01-15T02:25:09.505Z,0.70
2023-01-15T02:25:20.353Z,1.00
2023-01-15T02:25:32.855Z,0.90
2023-01-15T02:25:44.610Z,0.90
2023-01-15T02:25:55.399Z,0.60
2023-01-15T02:26:06.222Z,0.70
2023-01-15T02:26:17.003Z,0.70
2023-01-15T02:26:29.434Z,0.70
2023-01-15T02:26:40.214Z,0.70
2023-01-15T02:26:52.693Z,0.70
2023-01-15T02:27:04.399Z,0.70
2023-01-15T02:27:15.192Z,0.80
2023-01-15T02:27:25.980Z,0.70
2023-01-15T02:27:36.753Z,0.70
2023-01-15T02:27:47.492Z,0.70
2023-01-15T02:27:58.243Z,0.70
2023-01-15T02:28:09.982Z,0.60
2023-01-15T02:28:20.771Z,0.60
2023-01-15T02:28:31.635Z,0.70
2023-01-15T02:28:43.368Z,0.70
2023-01-15T02:28:54.139Z,0.80
2023-01-15T02:29:04.901Z,0.80
2023-01-15T02:29:15.730Z,0.80
2023-01-15T02:29:26.542Z,0.80
2023-01-15T02:29:37.345Z,0.80
2023-01-15T02:29:49.121Z,0.80
2023-01-15T02:29:59.885Z,0.70
2023-01-15T02:30:11.578Z,0.80
2023-01-15T02:30:22.311Z,0.80
2023-01-15T02:30:34.801Z,0.70
2023-01-15T02:30:47.031Z,0.60
2023-01-15T02:30:57.787Z,0.60
2023-01-15T02:31:09.514Z,0.70
2023-01-15T02:31:21.779Z,0.70
2023-01-15T02:31:34.025Z,0.80
2023-01-15T02:31:46.599Z,0.80
2023-01-15T02:31:59.185Z,0.70
2023-01-15T02:32:09.947Z,0.80
2023-01-15T02:32:20.722Z,0.80
2023-01-15T02:32:33.176Z,0.80
2023-01-15T02:32:45.622Z,0.80